Time;durP1;ratioP1;P1;durP2;ratioP2;P2;SDS_P1;SDS_P2;PMS_P1;PMS_P2;Temp;Humidity;BMP_temperature;BMP_pressure;BME280_temperature;BME280_humidity;BME280_pressure;Samples;Min_cycle;Max_cycle;Signal;HPM_P1;HPM_P2
2022/11/28 00:02:06;;;;;;;4.07;2.23;;;;;;;5.44;52.88;100088.69;10100807;29;20547;-80
2022/11/28 00:07:28;;;;;;;3.27;2.53;;;;;;;5.53;52.73;100073.69;10076279;29;20202;-80
2022/11/28 00:12:50;;;;;;;3.93;2.10;;;;;;;5.08;54.40;100057.72;10113602;29;20246;-80
2022/11/28 00:18:12;;;;;;;2.63;1.90;;;;;;;5.51;53.26;100041.56;10074731;29;20214;-80
2022/11/28 00:23:35;;;;;;;3.43;2.10;;;;;;;5.39;53.85;100036.50;10103038;29;20250;-80
2022/11/28 00:28:57;;;;;;;3.27;1.93;;;;;;;5.40;56.12;100032.56;10089087;29;20265;-80
2022/11/28 00:34:19;;;;;;;2.70;2.40;;;;;;;4.86;59.27;100028.44;10139255;29;20201;-79
2022/11/28 00:39:41;;;;;;;4.03;2.17;;;;;;;5.12;61.00;100041.97;10102376;29;20206;-80
2022/11/28 00:45:04;;;;;;;4.20;2.50;;;;;;;4.99;61.89;100026.84;10103290;29;20458;-80
2022/11/28 00:50:26;;;;;;;3.00;2.33;;;;;;;4.93;62.24;100039.25;10088372;29;20225;-83
2022/11/28 00:55:48;;;;;;;3.90;2.43;;;;;;;5.34;61.41;100042.19;10088626;29;20439;-81
2022/11/28 01:01:12;;;;;;;2.70;2.43;;;;;;;4.98;62.65;100036.38;10101282;29;20226;-80
2022/11/28 01:06:37;;;;;;;3.00;2.50;;;;;;;5.15;61.82;100030.22;10088947;29;20456;-80
2022/11/28 01:11:59;;;;;;;3.00;2.23;;;;;;;4.95;63.16;100028.59;10081423;29;20258;-80
2022/11/28 01:17:21;;;;;;;4.23;2.47;;;;;;;5.01;63.06;100018.16;10086791;29;20217;-82
2022/11/28 01:22:43;;;;;;;4.47;2.73;;;;;;;4.94;63.75;100012.16;10100833;29;20206;-82
2022/11/28 01:28:05;;;;;;;3.50;2.30;;;;;;;4.71;64.66;100008.34;10096618;29;20209;-80
2022/11/28 01:33:27;;;;;;;3.83;2.83;;;;;;;5.17;64.31;100000.03;10099578;29;20727;-81
2022/11/28 01:38:50;;;;;;;3.77;2.83;;;;;;;4.75;66.10;99999.06;10081775;29;20262;-80
2022/11/28 01:44:12;;;;;;;3.23;2.93;;;;;;;4.82;67.56;99991.13;10088217;29;20254;-81
2022/11/28 01:49:35;;;;;;;4.47;2.30;;;;;;;4.19;69.88;99987.97;10104434;29;20222;-80
2022/11/28 01:54:59;;;;;;;4.50;2.57;;;;;;;4.26;70.60;99980.03;10082984;29;20261;-79
2022/11/28 02:00:22;;;;;;;4.17;3.33;;;;;;;4.13;70.83;99976.03;10104093;29;20524;-79
2022/11/28 02:05:44;;;;;;;4.57;2.90;;;;;;;4.10;70.68;99968.25;10075931;29;20212;-80
2022/11/28 02:11:21;;;;;;;4.40;2.87;;;;;;;4.18;70.51;99964.00;10107317;29;20641;-80
2022/11/28 02:17:22;;;;;;;5.90;3.50;;;;;;;4.13;70.79;99973.25;10083849;29;20205;-79
2022/11/28 02:23:08;;;;;;;3.20;2.90;;;;;;;4.42;70.36;99950.78;10100244;29;20205;-79
2022/11/28 02:29:04;;;;;;;4.60;2.47;;;;;;;3.87;71.06;99937.66;10102781;29;20202;-79
2022/11/28 02:34:30;;;;;;;5.30;2.80;;;;;;;4.05;71.09;99943.25;10107501;29;20234;-79
2022/11/28 02:40:06;;;;;;;3.70;2.83;;;;;;;3.93;70.53;99930.91;10081600;29;20251;-80
2022/11/28 02:45:30;;;;;;;3.83;3.37;;;;;;;4.13;69.58;99928.63;10078333;29;20253;-80
2022/11/28 02:51:10;;;;;;;4.17;3.20;;;;;;;3.99;69.83;99921.31;10121819;29;20221;-80
2022/11/28 02:56:33;;;;;;;5.03;3.20;;;;;;;4.16;67.92;99919.66;10131413;29;20209;-80
2022/11/28 03:01:55;;;;;;;4.17;3.07;;;;;;;4.27;67.39;99902.75;10131175;29;20233;-79
2022/11/28 03:07:42;;;;;;;5.23;3.17;;;;;;;4.16;66.62;99914.09;10131183;29;20263;-80
2022/11/28 03:13:28;;;;;;;5.13;3.70;;;;;;;4.61;65.59;99917.22;10114333;29;20272;-80
2022/11/28 03:19:03;;;;;;;4.43;3.03;;;;;;;5.11;63.39;99917.44;10141863;29;20218;-80
2022/11/28 03:24:34;;;;;;;3.40;3.07;;;;;;;5.05;64.00;99927.03;10104990;29;20226;-80
2022/11/28 03:30:05;;;;;;;4.67;3.20;;;;;;;4.44;64.52;99920.59;10092942;29;20230;-80
2022/11/28 03:35:30;;;;;;;3.67;3.37;;;;;;;4.48;65.36;99920.81;10092709;29;20206;-80
2022/11/28 03:40:55;;;;;;;3.53;2.70;;;;;;;4.53;64.71;99912.34;10075155;29;20675;-80
2022/11/28 03:46:19;;;;;;;4.40;3.37;;;;;;;5.19;62.24;99925.13;10076322;29;20519;-80
2022/11/28 03:52:06;;;;;;;4.40;3.40;;;;;;;5.17;61.94;99921.81;10074941;29;20237;-80
2022/11/28 03:57:33;;;;;;;3.93;2.77;;;;;;;5.65;60.22;99926.97;10074778;29;20269;-80
2022/11/28 04:03:20;;;;;;;4.87;3.33;;;;;;;5.07;61.79;99933.16;10087813;29;20198;-80
2022/11/28 04:08:46;;;;;;;3.50;3.10;;;;;;;5.11;61.32;99934.19;10093305;29;20343;-79
2022/11/28 04:14:20;;;;;;;5.17;3.03;;;;;;;5.14;60.49;99934.41;10090071;29;20274;-80
2022/11/28 04:19:48;;;;;;;2.47;2.27;;;;;;;5.10;60.12;99932.53;10082696;29;20289;-81
2022/11/28 04:25:13;;;;;;;2.80;2.50;;;;;;;5.02;59.82;99931.28;10073267;29;20273;-93
2022/11/28 04:30:36;;;;;;;2.50;2.30;;;;;;;5.04;59.65;99928.19;10088126;29;20222;-79
2022/11/28 04:35:59;;;;;;;3.57;2.23;;;;;;;5.52;58.96;99934.22;10090186;29;20209;-79
2022/11/28 04:41:31;;;;;;;3.17;2.83;;;;;;;4.79;61.05;99910.75;10089009;29;20671;-79
2022/11/28 04:46:54;;;;;;;3.40;2.80;;;;;;;5.05;61.25;99918.66;10088704;29;20281;-80
2022/11/28 04:52:23;;;;;;;4.90;2.50;;;;;;;5.06;60.70;99911.94;10072743;29;20237;-80
2022/11/28 04:57:48;;;;;;;3.53;2.90;;;;;;;5.17;60.26;99914.25;10072328;29;20234;-80
2022/11/28 05:03:11;;;;;;;5.17;3.40;;;;;;;4.98;61.83;99912.66;10098042;29;20599;-80
2022/11/28 05:08:33;;;;;;;5.43;3.03;;;;;;;4.84;61.56;99905.09;10089093;29;20206;-81
2022/11/28 05:13:55;;;;;;;2.50;2.30;;;;;;;5.21;60.31;99911.69;10077807;29;20272;-82
2022/11/28 05:19:17;;;;;;;4.47;2.80;;;;;;;5.11;60.57;99912.66;10087644;29;20231;-81
2022/11/28 05:24:39;;;;;;;3.87;2.87;;;;;;;5.65;58.93;99926.97;10099897;29;20253;-81
2022/11/28 05:30:01;;;;;;;2.73;2.27;;;;;;;5.65;57.82;99927.78;10125434;29;20226;-81
2022/11/28 05:35:25;;;;;;;3.83;2.63;;;;;;;5.17;58.81;99916.22;10128862;29;20229;-81
2022/11/28 05:40:47;;;;;;;5.17;2.30;;;;;;;5.11;57.77;99925.81;10118198;29;20245;-81
2022/11/28 05:46:09;;;;;;;4.33;2.77;;;;;;;5.91;57.74;99937.28;10097817;29;20239;-82
2022/11/28 05:51:31;;;;;;;2.63;2.00;;;;;;;6.01;55.37;99936.22;10110032;29;20217;-81
2022/11/28 05:56:53;;;;;;;2.13;1.87;;;;;;;5.88;54.75;99956.66;10081256;29;20264;-80
2022/11/28 06:02:15;;;;;;;3.37;2.30;;;;;;;6.07;53.86;99950.91;10065002;29;20262;-80
2022/11/28 06:07:38;;;;;;;4.53;2.27;;;;;;;5.32;57.20;99924.31;10090617;29;20234;-79
2022/11/28 06:13:01;;;;;;;3.17;2.40;;;;;;;4.60;58.46;99931.47;10114703;29;20246;-79
2022/11/28 06:18:23;;;;;;;3.77;2.60;;;;;;;4.81;58.63;99921.63;10084417;29;20668;-80
2022/11/28 06:23:46;;;;;;;2.70;2.30;;;;;;;5.18;57.98;99918.72;10081950;29;20205;-80
2022/11/28 06:29:08;;;;;;;2.60;2.40;;;;;;;6.29;54.78;99918.19;10087663;29;20197;-82
2022/11/28 06:34:31;;;;;;;4.23;2.87;;;;;;;5.97;56.32;99920.38;10118163;29;20221;-80
2022/11/28 06:39:53;;;;;;;5.87;3.60;;;;;;;5.73;56.63;99924.28;10102619;29;20213;-81
2022/11/28 06:45:15;;;;;;;3.10;2.80;;;;;;;5.52;57.88;99915.47;10136902;29;20201;-81
2022/11/28 06:50:37;;;;;;;3.23;2.50;;;;;;;5.16;58.93;99914.56;10104626;29;20282;-80
2022/11/28 06:56:04;;;;;;;4.90;2.63;;;;;;;4.89;58.71;99927.31;10098694;29;20222;-80
2022/11/28 07:01:29;;;;;;;4.10;2.73;;;;;;;5.67;56.30;99931.09;10094318;29;20228;-80
2022/11/28 07:06:51;;;;;;;3.33;2.60;;;;;;;5.07;57.93;99924.78;10106629;29;20225;-81
2022/11/28 07:12:13;;;;;;;3.03;2.53;;;;;;;5.47;56.58;99925.97;10122661;29;20530;-81
2022/11/28 07:17:35;;;;;;;5.17;3.40;;;;;;;5.21;57.32;99945.19;10125811;29;20205;-81
2022/11/28 07:22:57;;;;;;;4.63;2.80;;;;;;;5.39;56.65;99943.44;10073875;29;20507;-81
2022/11/28 07:28:19;;;;;;;4.27;2.93;;;;;;;5.39;57.24;99949.84;10107460;29;20224;-82
2022/11/28 07:33:43;;;;;;;6.13;3.70;;;;;;;5.53;56.61;99952.66;10101091;29;20243;-80
2022/11/28 07:39:07;;;;;;;6.07;3.40;;;;;;;5.15;57.05;99957.59;10096796;29;20250;-80
2022/11/28 07:44:29;;;;;;;6.87;4.27;;;;;;;5.44;56.79;99951.72;10091137;29;20194;-81
2022/11/28 07:49:53;;;;;;;6.30;3.50;;;;;;;5.08;57.56;99962.75;10067808;29;20565;-80
2022/11/28 07:55:15;;;;;;;6.20;4.00;;;;;;;4.99;57.29;99953.41;10119581;29;20225;-80
2022/11/28 08:00:37;;;;;;;6.17;4.70;;;;;;;5.48;56.23;99953.59;10089864;29;20226;-81
2022/11/28 08:06:00;;;;;;;5.60;4.60;;;;;;;5.19;56.96;99948.31;10093310;29;20547;-80
2022/11/28 08:11:23;;;;;;;9.67;7.03;;;;;;;5.34;56.53;99961.16;10081433;29;20586;-80
2022/11/28 08:16:45;;;;;;;7.73;4.53;;;;;;;5.53;55.91;99961.03;10095416;29;20210;-80
2022/11/28 08:22:07;;;;;;;5.00;3.90;;;;;;;5.54;55.96;99960.72;10114313;23;20291;-81
2022/11/28 08:27:30;;;;;;;4.97;4.13;;;;;;;5.75;55.73;99960.31;10213832;28;20226;-82
2022/11/28 08:32:52;;;;;;;4.20;3.70;;;;;;;5.39;55.71;99955.44;10231294;28;20266;-81
2022/11/28 08:38:14;;;;;;;3.97;3.27;;;;;;;5.16;57.52;99959.25;10197167;23;20612;-80
2022/11/28 08:43:37;;;;;;;4.27;3.67;;;;;;;5.72;56.50;99949.75;10138972;29;20205;-81
2022/11/28 08:49:00;;;;;;;3.67;3.37;;;;;;;5.55;57.10;99959.59;10198640;29;20541;-81
2022/11/28 08:54:23;;;;;;;3.50;3.13;;;;;;;5.64;56.17;99958.84;10176600;29;20223;-82
2022/11/28 08:59:45;;;;;;;3.63;3.33;;;;;;;5.21;58.10;99965.59;10188722;29;20501;-80
2022/11/28 09:05:16;;;;;;;3.37;2.80;;;;;;;5.44;57.93;99963.72;10213797;23;20236;-94
2022/11/28 09:10:39;;;;;;;3.50;3.07;;;;;;;5.61;57.18;99965.09;10097255;29;20209;-80
2022/11/28 09:16:01;;;;;;;4.33;3.37;;;;;;;5.79;57.18;99964.13;10127842;29;20216;-80
2022/11/28 09:21:23;;;;;;;5.13;3.67;;;;;;;5.65;57.03;99966.09;10094173;29;20205;-80
2022/11/28 09:26:46;;;;;;;4.57;3.57;;;;;;;5.89;56.95;99970.31;10093690;29;20315;-80
2022/11/28 09:32:08;;;;;;;3.60;3.23;;;;;;;5.98;56.44;99976.03;10111543;29;20579;-80
2022/11/28 09:37:30;;;;;;;3.53;3.10;;;;;;;6.18;56.43;99969.13;10143307;29;20204;-81
2022/11/28 09:42:52;;;;;;;3.20;2.90;;;;;;;6.12;57.13;99982.41;10132894;29;20205;-95
2022/11/28 09:48:28;;;;;;;3.40;3.10;;;;;;;6.37;56.54;99983.78;10091877;29;20285;-82
2022/11/28 09:54:21;;;;;;;4.33;3.90;;;;;;;6.19;57.53;99981.97;10117350;29;20227;-82
2022/11/28 09:59:45;;;;;;;5.40;3.13;;;;;;;6.57;57.00;99982.50;10093485;29;20268;-94
2022/11/28 10:05:33;;;;;;;5.77;3.33;;;;;;;5.93;58.16;99981.72;10010515;29;20206;-82
2022/11/28 10:11:02;;;;;;;4.93;4.03;;;;;;;6.19;58.26;99985.59;10016549;29;20295;-81
2022/11/28 10:16:51;;;;;;;3.60;3.03;;;;;;;5.79;59.71;99980.91;10000662;29;20276;-89
2022/11/28 10:22:18;;;;;;;4.57;3.47;;;;;;;5.82;59.75;99988.66;10011370;29;20252;-81
2022/11/28 10:27:40;;;;;;;7.37;3.50;;;;;;;5.64;60.63;99978.41;10002415;29;20349;-81
2022/11/28 10:33:10;;;;;;;4.07;3.57;;;;;;;6.00;60.82;99979.34;10010494;29;20242;-81
2022/11/28 10:38:35;;;;;;;7.97;4.50;;;;;;;5.81;62.03;99984.22;10120426;29;20213;-81
2022/11/28 10:44:04;;;;;;;4.83;3.43;;;;;;;5.73;62.73;99984.97;10101737;29;20229;-81
2022/11/28 10:49:48;;;;;;;5.43;4.20;;;;;;;5.48;64.32;99978.75;10084602;29;20523;-81
2022/11/28 10:55:24;;;;;;;5.53;4.07;;;;;;;5.37;63.88;99980.06;10140367;29;20280;-80
2022/11/28 11:00:48;;;;;;;7.40;4.20;;;;;;;5.70;62.88;99979.97;10126511;29;20232;-81
2022/11/28 11:06:11;;;;;;;6.17;4.33;;;;;;;5.58;63.84;99969.31;10097688;29;20269;-86
2022/11/28 11:11:36;;;;;;;5.67;4.23;;;;;;;5.91;62.89;99964.41;10123206;29;20251;-80
2022/11/28 11:16:58;;;;;;;6.37;4.00;;;;;;;5.64;63.93;99975.63;10111054;29;20445;-81
2022/11/28 11:22:27;;;;;;;5.53;4.40;;;;;;;5.94;63.09;99978.59;10121606;29;20202;-92
2022/11/28 11:27:50;;;;;;;5.17;4.23;;;;;;;5.90;64.25;99976.75;10101306;29;20269;-80
2022/11/28 11:33:16;;;;;;;6.83;4.10;;;;;;;5.92;63.07;99977.25;10135577;29;20644;-89
2022/11/28 11:38:38;;;;;;;6.10;3.73;;;;;;;5.90;63.20;99973.94;10102008;29;20237;-87
2022/11/28 11:44:28;;;;;;;6.40;3.87;;;;;;;6.12;63.83;99976.81;10122651;29;20216;-81
2022/11/28 11:50:01;;;;;;;5.97;4.00;;;;;;;6.61;61.54;99978.75;10105198;29;20225;-92
2022/11/28 11:55:24;;;;;;;6.30;3.80;;;;;;;5.96;63.34;99967.09;10116823;29;20300;-85
2022/11/28 12:00:46;;;;;;;4.77;3.53;;;;;;;5.84;64.01;99969.63;10091408;29;20265;-80
2022/11/28 12:06:28;;;;;;;5.77;4.20;;;;;;;6.00;64.02;99979.34;10058340;29;20246;-80
2022/11/28 12:12:04;;;;;;;5.73;3.77;;;;;;;6.23;62.84;99974.59;10050408;29;20226;-80
2022/11/28 12:17:39;;;;;;;6.80;4.10;;;;;;;5.81;65.36;99964.63;10050192;29;20202;-80
2022/11/28 12:23:25;;;;;;;6.17;4.40;;;;;;;6.27;63.42;99975.66;10036955;29;20199;-81
2022/11/28 12:28:57;;;;;;;4.53;4.07;;;;;;;6.35;63.57;99982.44;10062293;29;20231;-81
2022/11/28 12:34:47;;;;;;;5.50;4.10;;;;;;;6.49;63.04;99981.28;10070619;29;20256;-80
2022/11/28 12:40:26;;;;;;;6.03;5.07;;;;;;;6.54;63.10;99978.34;10051517;29;20203;-82
2022/11/28 12:46:07;;;;;;;4.53;3.90;;;;;;;6.17;64.19;99985.06;10030827;29;20263;-83
2022/11/28 12:51:44;;;;;;;6.53;4.33;;;;;;;6.47;62.40;99985.56;10062194;29;20218;-80
2022/11/28 12:57:22;;;;;;;7.10;4.40;;;;;;;6.37;63.07;99980.16;10062012;29;20206;-80
2022/11/28 13:03:09;;;;;;;5.20;3.80;;;;;;;6.28;62.81;99986.50;10057717;29;20238;-82
2022/11/28 13:08:46;;;;;;;6.13;4.03;;;;;;;6.03;64.36;99989.03;10047772;29;20512;-82
2022/11/28 13:14:22;;;;;;;5.33;4.10;;;;;;;6.06;63.97;99989.25;10059347;29;20230;-82
2022/11/28 13:19:50;;;;;;;5.17;3.90;;;;;;;6.28;64.16;99986.50;10060187;29;20214;-82
2022/11/28 13:25:27;;;;;;;4.20;3.53;;;;;;;6.04;64.99;99979.50;10062199;29;20206;-82
2022/11/28 13:30:53;;;;;;;4.80;3.70;;;;;;;5.84;65.40;99983.59;10058611;29;20202;-82
2022/11/28 13:37:01;;;;;;;4.40;3.80;;;;;;;6.25;64.44;99987.16;10056150;29;20309;-81
2022/11/28 13:42:42;;;;;;;5.20;4.47;;;;;;;6.18;64.39;99985.91;10040239;29;20279;-82
2022/11/28 13:48:32;;;;;;;5.27;4.60;;;;;;;6.10;63.76;99995.88;10049076;29;20302;-90
2022/11/28 13:54:23;;;;;;;5.10;4.60;;;;;;;6.63;63.23;99998.03;10055279;29;20569;-82
2022/11/28 13:59:49;;;;;;;5.07;3.83;;;;;;;6.09;64.82;99997.03;10038507;29;20211;-82
2022/11/28 14:05:37;;;;;;;5.40;4.27;;;;;;;6.60;63.72;99993.06;10051333;29;20194;-82
2022/11/28 14:11:28;;;;;;;4.17;3.80;;;;;;;6.39;64.36;99995.50;10029758;29;20209;-81
2022/11/28 14:17:20;;;;;;;5.60;4.10;;;;;;;6.72;64.69;99990.53;10057747;29;20226;-83
2022/11/28 14:23:01;;;;;;;5.37;3.97;;;;;;;6.52;64.49;99996.63;10054880;29;20198;-88
2022/11/28 14:28:35;;;;;;;4.40;3.70;;;;;;;6.43;65.53;100004.13;10052434;29;20210;-80
2022/11/28 14:34:00;;;;;;;6.80;3.93;;;;;;;6.15;66.42;100009.75;10048746;29;20242;-80
2022/11/28 14:39:33;;;;;;;3.80;3.43;;;;;;;6.42;65.93;100019.25;10034703;29;20231;-81
2022/11/28 14:44:56;;;;;;;4.13;2.90;;;;;;;6.32;66.55;100015.53;10062883;29;20553;-80
2022/11/28 14:50:19;;;;;;;3.30;3.10;;;;;;;6.50;66.00;100021.31;10051387;29;20293;-81
2022/11/28 14:55:41;;;;;;;3.80;3.40;;;;;;;6.50;66.46;100021.31;10064537;29;20226;-81
2022/11/28 15:01:10;;;;;;;3.90;3.60;;;;;;;6.18;67.47;100023.13;10051392;29;20246;-81
2022/11/28 15:06:35;;;;;;;3.97;3.67;;;;;;;6.38;67.75;100023.81;10059766;29;20206;-84
2022/11/28 15:12:55;;;;;;;4.23;3.83;;;;;;;6.58;66.82;100028.94;10051680;29;20220;-80
2022/11/28 15:18:18;;;;;;;4.40;3.73;;;;;;;6.18;67.84;100030.69;10028157;29;20225;-82
2022/11/28 15:23:41;;;;;;;4.90;3.47;;;;;;;6.31;67.51;100027.84;10051679;29;20250;-81
2022/11/28 15:29:30;;;;;;;3.30;3.07;;;;;;;6.01;68.66;100042.53;10045124;29;20552;-81
2022/11/28 15:34:58;;;;;;;4.00;3.30;;;;;;;5.94;69.16;100048.53;10050645;29;20579;-80
2022/11/28 15:40:29;;;;;;;4.60;4.20;;;;;;;6.17;69.23;100049.44;10051249;29;20234;-88
2022/11/28 15:45:53;;;;;;;4.43;4.03;;;;;;;6.45;67.96;100050.25;10044075;29;20267;-83
2022/11/28 15:51:31;;;;;;;8.53;6.90;;;;;;;6.50;68.00;100050.16;10072439;29;20230;-89
2022/11/28 15:56:57;;;;;;;6.07;4.90;;;;;;;6.13;69.88;100034.44;10057003;29;20513;-91
2022/11/28 16:02:34;;;;;;;7.33;5.50;;;;;;;6.40;68.52;100046.75;10064431;29;20207;-88
2022/11/28 16:07:57;;;;;;;6.37;4.10;;;;;;;6.37;68.68;100050.16;10055154;29;20277;-90
2022/11/28 16:13:20;;;;;;;11.50;7.87;;;;;;;6.48;67.86;100065.59;10038998;29;20265;-82
2022/11/28 16:18:47;;;;;;;6.40;5.23;;;;;;;6.09;69.99;100066.97;10071829;29;20241;-83
2022/11/28 16:24:26;;;;;;;5.97;4.53;;;;;;;6.21;69.09;100063.63;10061932;29;20226;-89
2022/11/28 16:29:50;;;;;;;3.80;3.50;;;;;;;5.77;71.82;100069.88;10034635;29;20233;-87
2022/11/28 16:35:25;;;;;;;6.10;4.10;;;;;;;6.01;70.99;100076.09;10067416;29;20262;-90
2022/11/28 16:40:50;;;;;;;5.77;4.60;;;;;;;6.06;71.00;100078.78;10055495;29;20210;-87
2022/11/28 16:46:22;;;;;;;8.30;7.23;;;;;;;5.91;70.93;100085.50;10061394;29;20283;-93
2022/11/28 16:51:46;;;;;;;6.27;5.30;;;;;;;5.81;71.83;100093.28;10048337;29;20243;-89
2022/11/28 16:57:13;;;;;;;5.23;4.73;;;;;;;5.48;72.34;100098.94;10060846;29;20450;-88
2022/11/28 17:02:35;;;;;;;5.13;4.63;;;;;;;5.63;71.97;100097.84;10064938;29;20198;-88
2022/11/28 17:08:00;;;;;;;5.87;5.10;;;;;;;5.43;72.74;100093.44;10046974;29;20278;-83
2022/11/28 17:13:29;;;;;;;5.00;4.53;;;;;;;5.52;73.27;100094.38;10067992;29;20226;-86
2022/11/28 17:18:52;;;;;;;5.47;4.97;;;;;;;5.50;71.15;100099.44;10040958;29;20235;-92
2022/11/28 17:24:22;;;;;;;10.77;8.47;;;;;;;5.86;71.13;100101.59;10054301;29;20257;-85
2022/11/28 17:29:51;;;;;;;6.00;5.23;;;;;;;5.45;73.04;100090.34;10058456;29;20243;-95
2022/11/28 17:35:22;;;;;;;7.00;5.80;;;;;;;5.69;73.49;100106.94;10079812;29;20501;-85
2022/11/28 17:40:45;;;;;;;7.20;5.83;;;;;;;5.73;72.13;100113.59;10080305;29;20235;-86
2022/11/28 17:46:08;;;;;;;6.50;4.93;;;;;;;5.90;71.31;100111.00;10072582;29;20230;-88
2022/11/28 17:51:31;;;;;;;6.60;5.90;;;;;;;5.79;72.45;100115.13;10077084;29;20205;-80
2022/11/28 17:56:53;;;;;;;5.47;4.97;;;;;;;5.75;72.49;100116.91;10049716;29;20230;-87
2022/11/28 18:02:17;;;;;;;6.00;5.07;;;;;;;5.87;72.29;100111.63;10047832;29;20214;-95
2022/11/28 18:07:43;;;;;;;6.93;6.20;;;;;;;6.10;71.00;100119.00;10065718;29;20198;-93
2022/11/28 18:13:09;;;;;;;6.63;5.60;;;;;;;5.86;72.46;100119.19;10063675;29;20207;-90
2022/11/28 18:18:32;;;;;;;8.50;6.57;;;;;;;5.83;72.31;100124.56;10032406;29;20298;-86
2022/11/28 18:23:54;;;;;;;7.90;7.10;;;;;;;5.35;74.02;100124.91;10054677;29;20640;-81
2022/11/28 18:29:16;;;;;;;8.00;7.20;;;;;;;5.97;72.93;100125.41;10059500;29;20298;-80
2022/11/28 18:34:38;;;;;;;11.33;7.93;;;;;;;5.79;73.10;100129.13;10059729;29;20267;-80
2022/11/28 18:40:02;;;;;;;8.73;7.17;;;;;;;5.77;73.46;100125.78;10016227;29;20266;-83
2022/11/28 18:45:33;;;;;;;8.37;7.50;;;;;;;5.85;72.70;100117.53;10805068;23;20340;-85
2022/11/28 18:50:55;;;;;;;9.20;8.30;;;;;;;6.02;72.99;100133.69;10028644;29;20198;-83
2022/11/28 18:56:18;;;;;;;9.73;7.87;;;;;;;5.80;72.03;100145.59;10009397;29;20293;-86
2022/11/28 19:01:42;;;;;;;10.10;8.00;;;;;;;6.14;72.25;100142.44;10089184;29;20265;-82
2022/11/28 19:07:04;;;;;;;12.53;9.87;;;;;;;6.12;72.37;100139.09;10090598;29;20274;-82
2022/11/28 19:12:27;;;;;;;15.03;10.20;;;;;;;6.08;72.79;100154.84;10089174;29;20543;-81
2022/11/28 19:17:52;;;;;;;12.03;10.00;;;;;;;5.67;75.40;100163.16;10090165;29;20571;-81
2022/11/28 19:23:15;;;;;;;12.43;9.73;;;;;;;6.04;74.30;100164.16;10079990;29;20207;-81
2022/11/28 19:28:39;;;;;;;12.00;9.90;;;;;;;5.87;74.72;100161.97;10077972;29;20563;-92
2022/11/28 19:34:03;;;;;;;12.83;10.00;;;;;;;5.92;74.05;100167.47;10063076;29;20607;-80
2022/11/28 19:39:25;;;;;;;12.47;10.63;;;;;;;5.95;75.31;100164.06;10081324;29;20352;-81
2022/11/28 19:44:47;;;;;;;13.10;11.70;;;;;;;5.72;76.07;100168.69;10079208;29;20709;-84
2022/11/28 19:50:10;;;;;;;16.77;12.77;;;;;;;6.09;74.72;100167.69;10077426;29;20229;-82
2022/11/28 19:55:33;;;;;;;12.83;11.07;;;;;;;6.21;73.56;100170.81;10071044;29;20294;-80
2022/11/28 20:01:11;;;;;;;12.00;9.53;;;;;;;6.41;72.96;100174.38;10063165;29;20250;-83
2022/11/28 20:06:35;;;;;;;12.50;11.03;;;;;;;5.92;75.13;100179.47;10068077;29;20290;-83
2022/11/28 20:11:57;;;;;;;13.50;11.77;;;;;;;6.33;74.73;100178.69;10067308;29;20726;-83
2022/11/28 20:17:19;;;;;;;16.10;12.57;;;;;;;6.36;74.63;100188.44;10064521;29;20321;-81
2022/11/28 20:22:42;;;;;;;15.50;12.30;;;;;;;6.29;73.70;100189.66;10086218;29;20202;-81
2022/11/28 20:28:04;;;;;;;16.00;13.37;;;;;;;6.29;74.35;100186.88;10069660;29;20242;-81
2022/11/28 20:33:27;;;;;;;20.93;13.43;;;;;;;6.31;75.14;100195.78;10083897;29;20205;-81
2022/11/28 20:38:52;;;;;;;17.07;13.03;;;;;;;6.32;75.42;100196.63;10064149;29;20205;-81
2022/11/28 20:44:14;;;;;;;17.77;13.37;;;;;;;6.25;75.14;100202.66;10088526;29;20313;-81
2022/11/28 20:49:37;;;;;;;17.07;13.17;;;;;;;5.91;76.04;100210.56;10064128;29;20205;-82
2022/11/28 20:54:59;;;;;;;18.17;12.97;;;;;;;6.21;75.67;100207.19;10085723;29;20297;-83
2022/11/28 21:00:21;;;;;;;14.97;12.87;;;;;;;6.49;74.40;100205.28;10083696;29;20217;-81
2022/11/28 21:05:44;;;;;;;16.40;12.90;;;;;;;6.41;74.20;100202.38;10082920;29;20229;-81
2022/11/28 21:11:11;;;;;;;15.63;12.37;;;;;;;6.48;74.61;100202.78;10087200;29;20278;-85
2022/11/28 21:16:33;;;;;;;15.97;13.10;;;;;;;6.04;75.62;100214.53;10080283;29;20230;-80
2022/11/28 21:21:55;;;;;;;16.20;12.63;;;;;;;6.28;75.04;100209.59;10081267;29;20336;-81
2022/11/28 21:27:17;;;;;;;15.67;12.37;;;;;;;6.24;76.15;100208.56;10086726;29;20206;-80
2022/11/28 21:32:40;;;;;;;16.37;14.20;;;;;;;6.48;75.72;100208.38;10089053;29;20213;-85
2022/11/28 21:38:03;;;;;;;13.57;12.03;;;;;;;6.40;74.83;100207.16;10089991;29;20288;-80
2022/11/28 21:43:27;;;;;;;17.87;14.50;;;;;;;6.48;74.83;100214.81;10086666;29;20237;-87
2022/11/28 21:48:49;;;;;;;15.07;12.50;;;;;;;6.45;75.02;100209.00;10075250;29;20205;-81
2022/11/28 21:54:13;;;;;;;16.57;14.07;;;;;;;6.52;75.11;100215.03;10071780;29;20603;-81
2022/11/28 21:59:36;;;;;;;19.53;15.33;;;;;;;6.65;73.98;100219.78;10066369;29;20210;-81
2022/11/28 22:04:58;;;;;;;19.67;14.67;;;;;;;6.46;75.14;100216.25;10071031;29;20270;-80
2022/11/28 22:10:21;;;;;;;17.13;13.97;;;;;;;6.74;72.64;100222.69;10058959;29;20261;-80
2022/11/28 22:15:43;;;;;;;19.60;16.13;;;;;;;6.75;73.93;100224.34;10103644;29;20222;-81
2022/11/28 22:21:07;;;;;;;23.37;16.30;;;;;;;6.48;76.04;100227.97;10069426;29;20269;-81
2022/11/28 22:26:32;;;;;;;17.80;15.07;;;;;;;6.75;74.04;100225.16;10084677;29;20205;-81
2022/11/28 22:31:54;;;;;;;17.80;13.67;;;;;;;6.72;73.88;100230.56;10084066;29;20205;-81
2022/11/28 22:37:16;;;;;;;22.23;15.77;;;;;;;6.36;76.14;100234.06;10080018;29;20255;-81
2022/11/28 22:42:38;;;;;;;23.27;15.83;;;;;;;6.79;74.58;100231.81;10067532;29;20603;-81
2022/11/28 22:48:01;;;;;;;18.87;14.43;;;;;;;6.37;75.91;100232.09;10049867;29;20209;-81
2022/11/28 22:53:23;;;;;;;18.83;15.23;;;;;;;6.36;77.06;100244.44;10093086;29;20231;-81
2022/11/28 22:58:45;;;;;;;17.00;13.70;;;;;;;6.68;75.32;100240.72;10107704;29;20264;-87
2022/11/28 23:04:08;;;;;;;17.63;13.17;;;;;;;6.19;76.66;100242.22;10106717;29;20233;-82
2022/11/28 23:09:30;;;;;;;19.43;13.50;;;;;;;6.74;75.11;100243.13;10079415;29;20277;-80
2022/11/28 23:14:52;;;;;;;20.50;14.40;;;;;;;6.88;74.76;100252.34;10091139;29;20221;-80
2022/11/28 23:20:16;;;;;;;17.73;13.53;;;;;;;6.61;75.90;100255.16;10107695;29;20265;-80
2022/11/28 23:25:39;;;;;;;18.87;14.50;;;;;;;6.93;73.95;100255.03;10101371;29;20206;-80
2022/11/28 23:31:18;;;;;;;22.57;15.63;;;;;;;6.79;75.44;100264.59;10102724;29;20206;-80
2022/11/28 23:36:44;;;;;;;18.27;14.20;;;;;;;6.86;74.61;100254.63;10065991;29;20230;-80
2022/11/28 23:42:06;;;;;;;22.17;16.00;;;;;;;6.17;77.15;100264.91;10085711;29;20214;-81
2022/11/28 23:47:28;;;;;;;20.93;15.30;;;;;;;6.63;76.30;100258.47;10086886;29;20194;-80
2022/11/28 23:52:50;;;;;;;25.30;15.87;;;;;;;6.75;75.49;100258.78;10099948;29;20281;-80
2022/11/28 23:58:13;;;;;;;25.73;16.53;;;;;;;6.67;75.59;100262.28;10098214;29;20720;-80
